Time;durP1;ratioP1;P1;durP2;ratioP2;P2;SDS_P1;SDS_P2;PMS_P1;PMS_P2;Temp;Humidity;BMP_temperature;BMP_pressure;BME280_temperature;BME280_humidity;BME280_pressure;Samples;Min_cycle;Max_cycle;Signal;HPM_P1;HPM_P2
2021/01/28 00:02:06;;;;;;;68.68;35.67;;;10.50;99.90;;;;;;5028847;28;20125;-83
2021/01/28 00:04:32;;;;;;;67.35;33.58;;;10.50;99.90;;;;;;5028972;28;20084;-82
2021/01/28 00:06:58;;;;;;;45.92;26.65;;;10.50;99.90;;;;;;5012708;28;20060;-81
2021/01/28 00:09:23;;;;;;;32.85;19.38;;;10.60;99.90;;;;;;5030187;28;20033;-84
2021/01/28 00:11:49;;;;;;;19.10;12.80;;;10.60;99.90;;;;;;5012541;28;20025;-83
2021/01/28 00:14:15;;;;;;;17.60;11.25;;;10.60;99.90;;;;;;5028632;28;20449;-83
2021/01/28 00:16:41;;;;;;;10.88;6.95;;;10.60;99.90;;;;;;5012238;28;20129;-82
2021/01/28 00:19:07;;;;;;;11.30;6.15;;;10.70;99.90;;;;;;5028450;28;20033;-82
2021/01/28 00:21:33;;;;;;;6.10;4.20;;;10.70;99.90;;;;;;5028174;28;20055;-83
2021/01/28 00:23:58;;;;;;;5.53;3.75;;;10.80;99.90;;;;;;5028801;28;20049;-85
2021/01/28 00:26:24;;;;;;;5.93;3.65;;;10.80;99.90;;;;;;5012137;28;20033;-82
2021/01/28 00:28:50;;;;;;;5.43;3.70;;;10.90;99.90;;;;;;5029355;28;20464;-83
2021/01/28 00:31:16;;;;;;;7.32;3.78;;;10.90;99.90;;;;;;5029794;28;20044;-83
2021/01/28 00:33:41;;;;;;;4.88;3.15;;;10.90;99.90;;;;;;5028584;28;20041;-82
2021/01/28 00:36:08;;;;;;;7.18;3.60;;;11.00;99.90;;;;;;5028201;28;20421;-84
2021/01/28 00:38:37;;;;;;;7.07;3.80;;;11.00;99.90;;;;;;5029273;28;20087;-82
2021/01/28 00:41:07;;;;;;;5.35;3.22;;;11.10;99.90;;;;;;5030082;28;20112;-83
2021/01/28 00:43:33;;;;;;;;;;;11.10;99.90;;;;;;5028652;28;20404;-82
2021/01/28 00:45:59;;;;;;;4.75;3.45;;;11.20;99.90;;;;;;5028851;28;20024;-82
2021/01/28 00:48:28;;;;;;;4.82;2.80;;;11.10;99.90;;;;;;5028440;28;20057;-83
2021/01/28 00:50:56;;;;;;;4.25;2.63;;;11.10;99.90;;;;;;5012271;28;20021;-84
2021/01/28 00:53:24;;;;;;;4.00;2.88;;;11.10;99.90;;;;;;5011101;28;20526;-83
2021/01/28 00:55:50;;;;;;;5.80;3.53;;;11.10;99.90;;;;;;5029863;28;20029;-82
2021/01/28 00:58:19;;;;;;;4.53;3.33;;;11.10;99.90;;;;;;5012101;28;20030;-85
2021/01/28 01:00:46;;;;;;;4.93;3.23;;;11.20;99.90;;;;;;5029914;28;20033;-83
2021/01/28 01:03:14;;;;;;;4.18;2.83;;;11.20;99.90;;;;;;5027852;28;20288;-87
2021/01/28 01:05:41;;;;;;;3.80;2.90;;;11.20;99.90;;;;;;5028456;28;20018;-83
2021/01/28 01:08:10;;;;;;;4.70;3.25;;;11.20;99.90;;;;;;5029375;28;20474;-84
2021/01/28 01:10:42;;;;;;;4.75;3.72;;;11.20;99.90;;;;;;5028752;28;20388;-83
2021/01/28 01:13:10;;;;;;;4.70;3.47;;;11.20;99.90;;;;;;5030062;28;20030;-84
2021/01/28 01:15:37;;;;;;;6.05;3.33;;;11.20;99.90;;;;;;5028207;28;20025;-82
2021/01/28 01:18:04;;;;;;;7.45;4.88;;;11.20;99.90;;;;;;5011929;28;20033;-83
2021/01/28 01:20:30;;;;;;;8.88;5.60;;;11.20;99.90;;;;;;5028441;28;20032;-82
2021/01/28 01:22:56;;;;;;;6.45;4.68;;;11.20;99.90;;;;;;5011749;28;20029;-83
2021/01/28 01:25:22;;;;;;;7.90;4.03;;;11.30;99.90;;;;;;4995098;28;20040;-81
2021/01/28 01:27:48;;;;;;;4.63;3.60;;;11.30;99.90;;;;;;4995697;28;20030;-83
2021/01/28 01:30:16;;;;;;;5.70;3.80;;;11.30;99.90;;;;;;5011887;28;20049;-86
2021/01/28 01:32:42;;;;;;;4.68;3.63;;;11.30;99.90;;;;;;5029361;28;20022;-82
2021/01/28 01:35:11;;;;;;;5.57;3.63;;;11.30;99.90;;;;;;5028802;28;20032;-84
2021/01/28 01:37:37;;;;;;;4.85;4.00;;;11.30;99.90;;;;;;5028969;28;20108;-83
2021/01/28 01:40:04;;;;;;;5.82;3.55;;;11.30;99.90;;;;;;5028250;28;20068;-80
2021/01/28 01:42:31;;;;;;;4.85;3.50;;;11.30;99.90;;;;;;5029380;28;20033;-84
2021/01/28 01:44:58;;;;;;;6.32;3.72;;;11.30;99.90;;;;;;5029027;28;20046;-85
2021/01/28 01:47:41;;;;;;;5.25;3.55;;;11.20;99.90;;;;;;5012249;28;20030;-83
2021/01/28 01:50:18;;;;;;;4.53;3.28;;;11.20;99.90;;;;;;5030382;28;20025;-83
2021/01/28 01:52:44;;;;;;;5.70;2.80;;;11.30;99.90;;;;;;5029278;28;20057;-82
2021/01/28 01:55:10;;;;;;;7.13;3.05;;;11.30;99.90;;;;;;5011521;28;20056;-82
2021/01/28 01:57:38;;;;;;;7.22;3.25;;;11.30;99.90;;;;;;5028105;28;20536;-82
2021/01/28 02:00:09;;;;;;;5.38;3.47;;;11.30;99.90;;;;;;5027720;28;20033;-84
2021/01/28 02:02:39;;;;;;;10.43;3.60;;;11.30;99.90;;;;;;5027823;28;20029;-85
2021/01/28 02:05:18;;;;;;;7.63;4.10;;;11.30;99.90;;;;;;5029102;28;20037;-83
2021/01/28 02:07:44;;;;;;;6.40;3.08;;;11.30;99.90;;;;;;5031609;28;20597;-82
2021/01/28 02:10:13;;;;;;;4.78;3.30;;;11.40;99.90;;;;;;5031524;28;20114;-82
2021/01/28 02:12:38;;;;;;;6.05;3.10;;;11.40;99.90;;;;;;5032619;28;20453;-82
2021/01/28 02:15:09;;;;;;;6.13;3.30;;;11.40;99.90;;;;;;5032032;28;20112;-83
2021/01/28 02:17:37;;;;;;;5.72;2.85;;;11.40;99.90;;;;;;5014827;28;20064;-82
2021/01/28 02:20:09;;;;;;;3.17;2.60;;;11.40;99.90;;;;;;5031558;28;20518;-83
2021/01/28 02:22:53;;;;;;;6.38;2.70;;;11.50;99.90;;;;;;5032361;28;20099;-86
2021/01/28 02:25:31;;;;;;;7.65;3.00;;;11.40;99.90;;;;;;5032347;28;20481;-84
2021/01/28 02:28:08;;;;;;;7.75;3.30;;;11.50;99.90;;;;;;5030453;28;20032;-82
2021/01/28 02:30:35;;;;;;;5.68;3.70;;;11.50;99.90;;;;;;5030633;28;20032;-84
2021/01/28 02:33:02;;;;;;;5.47;3.22;;;11.50;99.90;;;;;;5014701;28;20320;-83
2021/01/28 02:35:31;;;;;;;8.40;3.60;;;11.50;99.90;;;;;;5031022;28;20053;-84
2021/01/28 02:38:02;;;;;;;6.90;3.47;;;11.50;99.90;;;;;;5030846;28;20385;-84
2021/01/28 02:40:30;;;;;;;4.75;3.20;;;11.50;99.90;;;;;;5032341;28;20171;-85
2021/01/28 02:42:56;;;;;;;6.97;3.30;;;11.50;99.90;;;;;;5014417;28;20511;-84
2021/01/28 02:45:42;;;;;;;8.82;3.10;;;11.50;99.90;;;;;;5014667;28;20068;-83
2021/01/28 02:48:10;;;;;;;9.40;3.20;;;11.60;99.90;;;;;;5030125;28;20029;-82
2021/01/28 02:50:37;;;;;;;9.48;3.38;;;11.60;99.90;;;;;;5030697;28;20108;-83
2021/01/28 02:53:05;;;;;;;8.77;3.50;;;11.60;99.90;;;;;;5031343;28;20021;-82
2021/01/28 02:55:33;;;;;;;8.07;3.65;;;11.60;99.90;;;;;;5031623;28;20024;-84
2021/01/28 02:57:59;;;;;;;7.90;3.22;;;11.70;99.90;;;;;;5014301;28;20046;-85
2021/01/28 03:00:32;;;;;;;10.95;3.85;;;11.70;99.90;;;;;;5030568;28;20585;-83
2021/01/28 03:02:58;;;;;;;9.63;3.30;;;11.70;99.90;;;;;;5030174;28;20029;-83
2021/01/28 03:05:23;;;;;;;5.63;3.50;;;11.70;99.90;;;;;;5030376;28;20538;-83
2021/01/28 03:07:49;;;;;;;7.75;3.63;;;11.70;99.90;;;;;;5013770;28;20113;-84
2021/01/28 03:10:21;;;;;;;5.90;3.10;;;11.70;99.90;;;;;;5030334;28;20112;-83
2021/01/28 03:12:47;;;;;;;6.47;3.08;;;11.70;99.90;;;;;;5032224;28;20033;-82
2021/01/28 03:15:15;;;;;;;10.05;3.45;;;11.70;99.90;;;;;;5013815;28;20029;-85
2021/01/28 03:17:41;;;;;;;6.18;3.10;;;11.80;99.90;;;;;;5030319;28;20041;-82
2021/01/28 03:20:08;;;;;;;9.05;3.50;;;11.70;99.90;;;;;;5013685;28;20026;-82
2021/01/28 03:22:35;;;;;;;8.38;3.65;;;11.70;99.90;;;;;;5029686;28;20048;-84
2021/01/28 03:25:02;;;;;;;4.82;3.67;;;11.70;99.90;;;;;;5031589;28;20049;-84
2021/01/28 03:27:28;;;;;;;6.70;3.00;;;11.70;99.90;;;;;;5014094;28;20473;-84
2021/01/28 03:29:54;;;;;;;6.50;3.20;;;11.70;99.90;;;;;;4996846;28;20071;-83
2021/01/28 03:32:19;;;;;;;6.22;2.75;;;11.70;99.90;;;;;;5029711;28;20021;-83
2021/01/28 03:34:45;;;;;;;6.82;3.00;;;11.70;99.90;;;;;;5012959;28;20033;-82
2021/01/28 03:37:11;;;;;;;9.23;3.08;;;11.70;99.90;;;;;;4997366;28;20057;-83
2021/01/28 03:39:37;;;;;;;4.80;2.67;;;11.80;99.90;;;;;;5013116;28;20516;-83
2021/01/28 03:42:03;;;;;;;7.13;3.25;;;11.80;99.90;;;;;;5030003;28;20082;-85
2021/01/28 03:44:28;;;;;;;3.35;2.10;;;11.80;99.90;;;;;;5029348;28;20133;-84
2021/01/28 03:46:54;;;;;;;6.70;3.28;;;11.80;99.90;;;;;;5029263;28;20434;-83
2021/01/28 03:49:20;;;;;;;7.95;3.50;;;11.80;99.90;;;;;;5029029;28;20040;-83
2021/01/28 03:51:45;;;;;;;5.32;3.25;;;11.80;99.90;;;;;;5012664;28;20032;-85
2021/01/28 03:54:11;;;;;;;4.88;2.47;;;11.80;99.90;;;;;;5029370;28;20108;-83
2021/01/28 03:56:37;;;;;;;6.15;2.50;;;11.80;99.90;;;;;;5029659;28;20415;-83
2021/01/28 03:59:02;;;;;;;5.75;2.80;;;11.80;99.90;;;;;;5029314;28;20041;-83
2021/01/28 04:01:28;;;;;;;6.05;2.30;;;11.80;99.90;;;;;;5031118;28;20045;-84
2021/01/28 04:03:53;;;;;;;4.25;2.00;;;11.80;99.90;;;;;;5012624;28;20469;-83
2021/01/28 04:06:19;;;;;;;10.00;2.63;;;11.80;99.90;;;;;;5012655;28;20122;-82
2021/01/28 04:08:45;;;;;;;5.97;2.28;;;11.90;99.90;;;;;;5012683;28;20022;-83
2021/01/28 04:11:10;;;;;;;4.00;2.00;;;11.90;99.90;;;;;;5029182;28;20465;-85
2021/01/28 04:13:36;;;;;;;10.60;2.33;;;11.90;99.90;;;;;;5029174;28;20034;-84
2021/01/28 04:16:02;;;;;;;7.28;2.20;;;11.90;99.90;;;;;;5029379;28;20037;-84
2021/01/28 04:18:27;;;;;;;8.73;1.55;;;11.80;99.90;;;;;;5030496;28;20037;-82
2021/01/28 04:20:53;;;;;;;9.20;1.67;;;11.80;99.90;;;;;;5012626;28;20099;-81
2021/01/28 04:23:19;;;;;;;10.95;1.80;;;11.70;99.90;;;;;;5012603;28;20041;-84
2021/01/28 04:25:45;;;;;;;13.45;1.88;;;11.60;99.90;;;;;;5012415;28;20120;-83
2021/01/28 04:28:11;;;;;;;17.38;3.20;;;11.50;99.90;;;;;;5030331;28;20456;-85
2021/01/28 04:30:36;;;;;;;11.05;2.10;;;11.40;99.90;;;;;;5030139;28;20151;-81
2021/01/28 04:33:04;;;;;;;15.98;2.42;;;11.30;99.90;;;;;;5012558;28;20037;-84
2021/01/28 04:35:30;;;;;;;19.75;2.25;;;11.30;99.90;;;;;;5029839;28;20037;-82
2021/01/28 04:37:56;;;;;;;21.65;2.78;;;11.20;99.90;;;;;;5028481;28;20025;-83
2021/01/28 04:40:36;;;;;;;15.63;2.53;;;11.10;99.90;;;;;;5030151;28;20116;-85
2021/01/28 04:43:22;;;;;;;;;;;11.10;99.90;;;;;;5029779;28;20017;-84
2021/01/28 04:45:49;;;;;;;21.98;3.17;;;11.10;99.90;;;;;;5029893;28;19905;-84
2021/01/28 04:48:17;;;;;;;17.95;2.97;;;11.00;99.90;;;;;;5028269;28;20515;-85
2021/01/28 04:50:43;;;;;;;21.58;2.70;;;11.00;99.90;;;;;;5011997;28;20034;-82
2021/01/28 04:53:21;;;;;;;18.92;2.58;;;10.90;99.90;;;;;;5028210;28;20041;-82
2021/01/28 04:55:50;;;;;;;17.95;3.58;;;10.90;99.90;;;;;;5029183;28;20100;-81
2021/01/28 04:58:17;;;;;;;24.93;3.90;;;10.90;99.90;;;;;;5027781;28;20034;-83
2021/01/28 05:00:42;;;;;;;14.82;3.10;;;10.90;99.90;;;;;;5027823;28;20030;-84
2021/01/28 05:03:11;;;;;;;20.13;2.90;;;10.90;99.90;;;;;;5011185;28;20033;-84
2021/01/28 05:05:38;;;;;;;16.10;2.92;;;10.90;99.90;;;;;;5027907;28;20037;-83
2021/01/28 05:08:04;;;;;;;30.45;3.67;;;10.80;99.90;;;;;;5028041;28;20108;-83
2021/01/28 05:10:30;;;;;;;20.23;4.15;;;10.90;99.90;;;;;;5027762;28;20017;-83
2021/01/28 05:12:59;;;;;;;26.20;4.57;;;10.90;99.90;;;;;;5027872;28;20031;-83
2021/01/28 05:15:35;;;;;;;21.48;3.65;;;10.90;99.90;;;;;;5011841;28;20404;-82
2021/01/28 05:18:10;;;;;;;23.85;3.72;;;10.90;99.90;;;;;;5027824;28;20431;-83
2021/01/28 05:20:37;;;;;;;22.38;3.92;;;11.00;99.90;;;;;;5028665;28;20026;-84
2021/01/28 05:23:05;;;;;;;19.45;3.95;;;11.00;99.90;;;;;;5027761;28;20087;-82
2021/01/28 05:25:34;;;;;;;23.35;4.30;;;11.00;99.90;;;;;;5029042;28;20022;-83
2021/01/28 05:28:14;;;;;;;;;;;11.00;99.90;;;;;;5029530;28;20476;-83
2021/01/28 05:30:43;;;;;;;22.70;3.13;;;11.10;99.90;;;;;;5029591;28;20425;-83
2021/01/28 05:33:27;;;;;;;26.63;4.72;;;11.10;99.90;;;;;;5027568;28;20029;-83
2021/01/28 05:36:18;;;;;;;23.73;4.97;;;11.10;99.90;;;;;;5028695;28;20025;-82
2021/01/28 05:38:46;;;;;;;37.33;4.50;;;11.10;99.90;;;;;;5028088;28;20026;-83
2021/01/28 05:41:42;;;;;;;23.58;3.80;;;11.10;99.90;;;;;;5028544;28;20026;-82
2021/01/28 05:44:22;;;;;;;23.65;4.70;;;11.00;99.90;;;;;;5028974;28;20039;-83
2021/01/28 05:47:34;;;;;;;33.33;6.07;;;11.00;99.90;;;;;;5028581;28;20478;-84
2021/01/28 05:50:30;;;;;;;36.92;4.10;;;11.00;99.90;;;;;;5027096;28;20033;-83
2021/01/28 05:53:14;;;;;;;30.02;4.43;;;11.00;99.90;;;;;;5028349;28;20021;-84
2021/01/28 05:55:40;;;;;;;25.60;5.15;;;11.10;99.90;;;;;;5026976;28;20021;-82
2021/01/28 05:58:28;;;;;;;31.27;4.85;;;11.10;99.90;;;;;;5027240;28;20033;-83
2021/01/28 06:00:59;;;;;;;20.45;3.78;;;11.10;99.90;;;;;;5028377;28;20100;-84
2021/01/28 06:03:49;;;;;;;27.30;4.45;;;11.10;99.90;;;;;;5026645;28;20033;-83
2021/01/28 06:06:55;;;;;;;25.02;3.78;;;11.10;99.90;;;;;;5028320;28;20025;-82
2021/01/28 06:09:55;;;;;;;28.52;4.22;;;11.10;99.90;;;;;;5026711;28;20026;-83
2021/01/28 06:12:40;;;;;;;33.42;4.75;;;11.10;99.90;;;;;;5026630;28;20091;-84
2021/01/28 06:15:28;;;;;;;24.77;5.03;;;11.00;99.90;;;;;;5027430;28;20036;-81
2021/01/28 06:18:11;;;;;;;26.63;4.30;;;11.00;99.90;;;;;;5027191;28;20079;-86
2021/01/28 06:21:08;;;;;;;31.48;5.47;;;10.90;99.90;;;;;;5026708;28;20096;-82
2021/01/28 06:23:49;;;;;;;31.17;5.95;;;11.00;99.90;;;;;;5026767;28;20034;-83
2021/01/28 06:26:38;;;;;;;33.60;4.50;;;11.00;99.90;;;;;;5026867;28;20022;-83
2021/01/28 06:29:34;;;;;;;29.85;5.45;;;10.90;99.90;;;;;;5027809;28;20038;-83
2021/01/28 06:32:12;;;;;;;33.47;5.32;;;10.90;99.90;;;;;;5026596;28;20503;-84
2021/01/28 06:34:57;;;;;;;46.05;7.50;;;10.80;99.90;;;;;;5027167;28;20033;-84
2021/01/28 06:37:46;;;;;;;50.80;6.97;;;10.80;99.90;;;;;;5026931;28;20253;-83
2021/01/28 06:40:19;;;;;;;48.03;7.55;;;10.80;99.90;;;;;;5027611;28;20317;-83
2021/01/28 06:43:04;;;;;;;34.20;6.28;;;10.80;99.90;;;;;;5028025;28;20025;-83
2021/01/28 06:45:38;;;;;;;40.53;6.38;;;10.80;99.90;;;;;;5027830;28;20026;-83
2021/01/28 06:48:12;;;;;;;34.38;5.78;;;10.90;99.90;;;;;;5026372;28;20025;-82
2021/01/28 06:50:52;;;;;;;40.25;6.40;;;10.90;99.90;;;;;;5026533;28;20080;-83
2021/01/28 06:53:45;;;;;;;31.45;5.35;;;10.90;99.90;;;;;;5030099;28;20089;-82
2021/01/28 06:56:23;;;;;;;36.28;5.68;;;10.90;99.90;;;;;;5030098;28;20277;-83
2021/01/28 06:59:07;;;;;;;33.63;6.38;;;11.00;99.90;;;;;;5030065;28;20034;-83
2021/01/28 07:01:53;;;;;;;39.75;5.80;;;10.90;99.90;;;;;;5029929;28;20064;-83
2021/01/28 07:04:22;;;;;;;37.95;7.00;;;10.90;99.90;;;;;;5029649;28;20029;-82
2021/01/28 07:07:15;;;;;;;27.75;5.70;;;10.90;99.90;;;;;;5029801;28;20042;-84
2021/01/28 07:09:50;;;;;;;37.95;4.72;;;10.90;99.90;;;;;;5031091;28;20051;-81
2021/01/28 07:12:22;;;;;;;28.58;5.00;;;10.90;99.90;;;;;;5031300;28;20022;-84
2021/01/28 07:14:50;;;;;;;42.88;5.82;;;10.90;99.90;;;;;;5030150;28;20036;-83
2021/01/28 07:17:36;;;;;;;42.80;6.22;;;10.90;99.90;;;;;;5013443;28;20026;-81
2021/01/28 07:20:13;;;;;;;36.45;5.75;;;10.80;99.90;;;;;;5029911;28;20030;-84
2021/01/28 07:22:41;;;;;;;30.45;5.13;;;10.80;99.90;;;;;;5029760;28;20142;-84
2021/01/28 07:25:30;;;;;;;32.75;4.72;;;10.80;99.90;;;;;;5030640;28;20032;-84
2021/01/28 07:28:05;;;;;;;37.37;5.80;;;10.90;99.90;;;;;;5029949;28;20017;-83
2021/01/28 07:30:41;;;;;;;27.83;5.18;;;10.80;99.90;;;;;;5030650;28;20017;-81
2021/01/28 07:33:26;;;;;;;34.42;5.20;;;10.80;99.90;;;;;;5030780;28;20473;-82
2021/01/28 07:36:22;;;;;;;43.22;6.72;;;10.80;99.90;;;;;;5030703;28;20030;-85
2021/01/28 07:39:03;;;;;;;28.50;5.07;;;10.90;99.90;;;;;;5026337;28;20057;-82
2021/01/28 07:41:39;;;;;;;31.58;4.90;;;10.90;99.90;;;;;;5029240;28;20088;-83
2021/01/28 07:44:26;;;;;;;37.15;5.82;;;10.90;99.90;;;;;;5029355;28;20395;-83
2021/01/28 07:46:54;;;;;;;29.85;5.05;;;10.90;99.90;;;;;;5030381;28;20022;-81
2021/01/28 07:49:24;;;;;;;37.45;6.38;;;10.80;99.90;;;;;;5028762;28;20099;-83
2021/01/28 07:52:02;;;;;;;44.00;8.48;;;10.70;99.90;;;;;;5028801;28;20025;-82
2021/01/28 07:54:28;;;;;;;41.80;5.93;;;10.70;99.90;;;;;;5030275;28;20032;-83
2021/01/28 07:57:08;;;;;;;27.92;5.32;;;10.70;99.90;;;;;;5028376;28;20030;-83
2021/01/28 07:59:46;;;;;;;37.28;5.32;;;10.70;99.90;;;;;;5029219;28;20022;-83
2021/01/28 08:02:31;;;;;;;36.45;5.18;;;10.70;99.90;;;;;;5029444;28;20017;-81
2021/01/28 08:05:07;;;;;;;38.45;6.13;;;10.70;99.90;;;;;;5028315;28;20034;-82
2021/01/28 08:07:42;;;;;;;37.80;6.05;;;10.70;99.90;;;;;;5029695;28;20499;-82
2021/01/28 08:10:22;;;;;;;41.20;6.90;;;10.80;99.90;;;;;;5028905;28;20563;-83
2021/01/28 08:13:02;;;;;;;37.08;6.45;;;10.80;99.90;;;;;;5028674;28;20729;-83
2021/01/28 08:15:40;;;;;;;36.53;7.85;;;10.80;99.90;;;;;;5030713;28;20377;-83
2021/01/28 08:18:15;;;;;;;36.03;5.35;;;10.90;99.90;;;;;;5027923;28;20029;-84
2021/01/28 08:20:41;;;;;;;34.95;5.63;;;10.90;99.90;;;;;;5029235;28;21132;-83
2021/01/28 08:23:33;;;;;;;38.00;6.22;;;10.90;99.90;;;;;;5028423;28;20029;-83
2021/01/28 08:26:01;;;;;;;36.35;5.63;;;11.00;99.90;;;;;;5028390;28;20120;-82
2021/01/28 08:28:30;;;;;;;29.67;5.00;;;11.00;99.90;;;;;;5028227;28;20029;-83
2021/01/28 08:31:16;;;;;;;27.80;4.50;;;11.00;99.90;;;;;;5028259;28;20044;-82
2021/01/28 08:33:44;;;;;;;39.95;6.03;;;11.00;99.90;;;;;;5028574;28;20079;-82
2021/01/28 08:36:26;;;;;;;39.88;5.03;;;11.10;99.90;;;;;;5029793;28;20128;-83
2021/01/28 08:39:06;;;;;;;35.97;6.47;;;11.10;99.90;;;;;;5029073;28;20468;-83
2021/01/28 08:41:32;;;;;;;33.70;4.93;;;11.10;99.90;;;;;;5029028;28;20033;-83
2021/01/28 08:44:04;;;;;;;27.58;5.65;;;11.00;99.90;;;;;;5027366;28;20029;-82
2021/01/28 08:46:30;;;;;;;23.52;5.03;;;11.00;99.90;;;;;;5027615;28;20022;-85
2021/01/28 08:49:05;;;;;;;30.85;5.18;;;11.00;99.90;;;;;;4994583;28;20040;-84
2021/01/28 08:51:34;;;;;;;28.88;4.55;;;11.00;99.90;;;;;;5028181;28;20030;-84
2021/01/28 08:54:15;;;;;;;35.08;6.35;;;11.00;99.90;;;;;;5028769;28;20022;-84
2021/01/28 08:56:41;;;;;;;39.28;6.25;;;11.10;99.90;;;;;;5026564;28;20049;-84
2021/01/28 08:59:11;;;;;;;24.80;5.53;;;11.10;99.90;;;;;;5028363;28;20117;-84
2021/01/28 09:01:47;;;;;;;40.75;8.63;;;11.10;99.90;;;;;;5027020;28;20121;-81
2021/01/28 09:04:33;;;;;;;25.00;4.93;;;11.10;99.90;;;;;;5026784;28;20037;-84
2021/01/28 09:06:59;;;;;;;40.40;6.20;;;11.10;99.90;;;;;;5026731;28;20484;-83
2021/01/28 09:09:31;;;;;;;42.53;6.13;;;11.10;99.90;;;;;;5026939;28;20088;-83
2021/01/28 09:12:21;;;;;;;43.40;6.13;;;11.10;99.90;;;;;;5027031;28;20095;-82
2021/01/28 09:14:47;;;;;;;44.95;5.70;;;11.10;99.90;;;;;;5027608;28;20018;-83
2021/01/28 09:17:23;;;;;;;39.95;6.18;;;11.10;99.90;;;;;;5010436;28;20048;-83
2021/01/28 09:20:00;;;;;;;31.10;6.75;;;11.10;99.90;;;;;;5026677;28;20040;-83
2021/01/28 09:22:38;;;;;;;33.72;5.72;;;11.00;99.90;;;;;;5010591;28;20068;-80
2021/01/28 09:25:17;;;;;;;48.37;6.23;;;11.00;99.90;;;;;;5027873;28;20203;-81
2021/01/28 09:27:43;;;;;;;34.13;6.00;;;10.90;99.90;;;;;;5026892;28;20028;-81
2021/01/28 09:30:23;;;;;;;32.20;4.93;;;10.80;99.90;;;;;;5026524;28;20029;-83
2021/01/28 09:32:49;;;;;;;45.63;6.28;;;10.80;99.90;;;;;;5027047;28;20365;-84
2021/01/28 09:35:27;;;;;;;38.55;5.00;;;10.70;99.90;;;;;;5010283;28;20060;-83
2021/01/28 09:38:14;;;;;;;34.13;5.90;;;10.70;99.90;;;;;;5026910;28;20067;-82
2021/01/28 09:40:43;;;;;;;37.78;6.60;;;10.70;99.90;;;;;;5027288;28;20028;-83
2021/01/28 09:43:29;;;;;;;36.45;6.03;;;10.60;99.90;;;;;;5027573;28;20033;-85
2021/01/28 09:46:22;;;;;;;50.97;6.80;;;10.60;99.90;;;;;;5026297;28;20033;-84
2021/01/28 09:48:51;;;;;;;44.33;5.35;;;10.60;99.90;;;;;;5012820;28;20057;-83
2021/01/28 09:51:25;;;;;;;36.67;6.00;;;10.60;99.90;;;;;;5025973;28;20026;-83
2021/01/28 09:54:16;;;;;;;41.13;5.60;;;10.70;99.90;;;;;;5026037;28;20029;-83
2021/01/28 09:56:43;;;;;;;41.75;6.75;;;10.70;99.90;;;;;;5028124;28;20021;-84
2021/01/28 09:59:09;;;;;;;34.15;5.47;;;10.80;99.90;;;;;;5025938;28;20076;-83
2021/01/28 10:01:35;;;;;;;35.65;6.40;;;10.90;99.90;;;;;;4993813;28;20068;-82
2021/01/28 10:04:02;;;;;;;43.58;6.97;;;10.90;99.90;;;;;;5009730;28;20412;-83
2021/01/28 10:06:27;;;;;;;39.90;6.00;;;10.90;99.90;;;;;;5025738;28;20033;-84
2021/01/28 10:08:53;;;;;;;38.03;5.80;;;10.90;99.90;;;;;;5026140;28;20029;-83
2021/01/28 10:11:19;;;;;;;41.30;9.00;;;11.00;99.90;;;;;;5009628;28;20115;-82
2021/01/28 10:13:45;;;;;;;31.20;6.82;;;11.10;99.90;;;;;;5010575;28;20029;-84
2021/01/28 10:16:11;;;;;;;28.15;6.43;;;11.10;99.90;;;;;;5026329;28;20468;-83
2021/01/28 10:18:37;;;;;;;32.90;7.43;;;11.10;99.90;;;;;;5009606;28;20033;-81
2021/01/28 10:21:05;;;;;;;49.58;10.35;;;11.10;99.90;;;;;;5009862;28;20049;-82
2021/01/28 10:23:30;;;;;;;35.60;6.55;;;11.10;99.90;;;;;;5009276;28;20033;-85
2021/01/28 10:25:56;;;;;;;38.65;5.82;;;11.10;99.90;;;;;;4994838;28;20030;-84
2021/01/28 10:28:22;;;;;;;42.25;5.80;;;11.10;99.90;;;;;;5013597;28;20416;-84
2021/01/28 10:30:48;;;;;;;38.17;5.97;;;11.20;99.90;;;;;;5013683;28;20083;-84
2021/01/28 10:33:13;;;;;;;38.60;5.68;;;11.20;99.90;;;;;;5013143;28;20389;-81
2021/01/28 10:35:39;;;;;;;36.03;6.97;;;11.30;99.90;;;;;;5029335;28;20105;-82
2021/01/28 10:38:05;;;;;;;35.80;7.32;;;11.30;99.90;;;;;;5012685;28;20044;-85
2021/01/28 10:40:32;;;;;;;41.35;10.35;;;11.40;99.90;;;;;;5012892;28;20151;-83
2021/01/28 10:43:01;;;;;;;43.35;8.05;;;11.50;99.90;;;;;;5012981;28;20030;-68
2021/01/28 10:45:33;;;;;;;36.03;6.75;;;11.50;99.90;;;;;;5030405;28;20110;-82
2021/01/28 10:47:59;;;;;;;35.65;5.05;;;11.60;99.90;;;;;;5030749;28;20044;-80
2021/01/28 10:50:25;;;;;;;27.40;5.25;;;11.70;99.90;;;;;;5012619;28;20030;-82
2021/01/28 10:52:52;;;;;;;35.13;5.75;;;11.70;99.90;;;;;;5030802;28;20033;-84
2021/01/28 10:55:19;;;;;;;34.03;6.68;;;11.70;99.90;;;;;;5030465;28;20135;-85
2021/01/28 10:57:45;;;;;;;41.47;6.13;;;11.70;99.90;;;;;;5029759;28;20048;-83
2021/01/28 11:00:12;;;;;;;39.13;7.40;;;11.80;99.90;;;;;;5029062;28;20407;-83
2021/01/28 11:02:38;;;;;;;40.90;10.00;;;11.80;99.90;;;;;;5029591;28;20551;-79
2021/01/28 11:05:15;;;;;;;32.08;5.07;;;11.80;99.90;;;;;;5029897;28;20039;-77
2021/01/28 11:07:41;;;;;;;38.95;7.20;;;11.80;99.90;;;;;;5028826;28;20039;-82
2021/01/28 11:10:07;;;;;;;27.80;5.85;;;11.90;99.90;;;;;;5012146;28;20029;-83
2021/01/28 11:12:33;;;;;;;24.17;4.57;;;11.90;99.90;;;;;;5012836;28;20037;-83
2021/01/28 11:14:59;;;;;;;41.13;6.65;;;11.90;99.90;;;;;;5012727;28;20040;-84
2021/01/28 11:17:24;;;;;;;33.63;5.93;;;11.90;99.90;;;;;;5028847;28;20033;-82
2021/01/28 11:19:50;;;;;;;53.58;10.70;;;12.00;99.90;;;;;;5028718;28;20029;-84
2021/01/28 11:22:16;;;;;;;41.55;7.85;;;12.00;99.90;;;;;;5028895;28;20528;-84
2021/01/28 11:24:41;;;;;;;39.05;7.05;;;12.10;99.90;;;;;;5012855;28;20467;-83
2021/01/28 11:27:07;;;;;;;30.25;5.38;;;12.10;99.90;;;;;;5028584;28;20072;-82
2021/01/28 11:29:33;;;;;;;33.78;5.50;;;12.20;99.90;;;;;;5029999;28;20064;-83
2021/01/28 11:31:58;;;;;;;33.22;5.30;;;12.20;99.90;;;;;;5029626;28;20070;-84
2021/01/28 11:34:27;;;;;;;30.85;5.93;;;12.20;99.90;;;;;;5012472;28;20072;-82
2021/01/28 11:36:53;;;;;;;29.90;5.88;;;12.20;99.90;;;;;;5013584;28;20037;-80
2021/01/28 11:39:19;;;;;;;41.05;11.18;;;12.10;99.90;;;;;;5028051;28;20088;-83
2021/01/28 11:41:45;;;;;;;34.72;7.55;;;12.10;99.90;;;;;;5012062;28;20128;-82
2021/01/28 11:44:11;;;;;;;33.45;6.85;;;12.10;99.90;;;;;;5028410;28;20519;-81
2021/01/28 11:46:37;;;;;;;42.58;6.55;;;12.00;99.90;;;;;;5028869;28;20025;-81
2021/01/28 11:49:03;;;;;;;37.80;5.65;;;12.00;99.90;;;;;;5012788;28;20030;-81
2021/01/28 11:51:28;;;;;;;32.55;5.30;;;12.00;99.90;;;;;;5028519;28;20056;-80
2021/01/28 11:53:54;;;;;;;35.40;6.82;;;12.00;99.90;;;;;;5011879;28;20273;-83
2021/01/28 11:56:20;;;;;;;37.15;9.35;;;12.00;99.90;;;;;;5011277;28;20476;-85
2021/01/28 11:58:46;;;;;;;26.70;5.07;;;12.00;99.90;;;;;;5011280;28;20435;-83
2021/01/28 12:01:11;;;;;;;31.45;4.95;;;12.10;99.90;;;;;;5011914;28;20056;-83
2021/01/28 12:03:37;;;;;;;28.10;4.80;;;12.30;99.90;;;;;;5028158;28;20091;-82
2021/01/28 12:06:03;;;;;;;39.78;5.70;;;12.40;99.90;;;;;;5027657;28;20366;-82
2021/01/28 12:08:28;;;;;;;39.50;5.80;;;12.40;99.90;;;;;;4995186;28;20439;-82
2021/01/28 12:10:55;;;;;;;39.13;7.65;;;12.40;99.90;;;;;;4994695;28;20036;-85
2021/01/28 12:13:20;;;;;;;34.08;8.57;;;12.40;99.90;;;;;;5027936;28;20028;-81
2021/01/28 12:15:46;;;;;;;28.98;5.95;;;12.30;99.90;;;;;;5011516;28;20587;-83
2021/01/28 12:18:12;;;;;;;34.72;5.78;;;12.30;99.90;;;;;;5011143;28;20072;-83
2021/01/28 12:20:38;;;;;;;37.30;7.65;;;12.20;99.90;;;;;;5011247;28;20033;-84
2021/01/28 12:23:04;;;;;;;31.80;5.18;;;12.20;99.90;;;;;;5028379;28;20484;-84
2021/01/28 12:25:31;;;;;;;34.40;7.70;;;12.20;99.90;;;;;;5027523;28;20034;-82
2021/01/28 12:27:56;;;;;;;39.83;7.15;;;12.10;99.90;;;;;;5027301;28;20168;-83
2021/01/28 12:30:25;;;;;;;34.58;8.40;;;12.10;99.90;;;;;;5027355;28;20025;-82
2021/01/28 12:32:51;;;;;;;36.08;6.00;;;12.10;99.90;;;;;;5028397;28;20135;-83
2021/01/28 12:35:19;;;;;;;35.38;5.68;;;12.10;99.90;;;;;;5027131;28;20033;-81
2021/01/28 12:37:45;;;;;;;31.42;5.20;;;12.00;99.90;;;;;;5027754;28;20037;-84
2021/01/28 12:40:12;;;;;;;38.42;6.60;;;12.00;99.90;;;;;;5027015;28;20038;-71
2021/01/28 12:42:38;;;;;;;41.10;6.15;;;12.10;99.90;;;;;;5029073;28;20065;-84
2021/01/28 12:45:05;;;;;;;36.45;8.15;;;12.10;99.90;;;;;;5028988;28;20568;-85
2021/01/28 12:47:31;;;;;;;33.25;9.18;;;12.20;99.90;;;;;;5026742;28;20076;-82
2021/01/28 12:49:56;;;;;;;29.48;6.45;;;12.30;99.90;;;;;;5010631;28;20038;-81
2021/01/28 12:52:23;;;;;;;31.02;5.43;;;12.50;99.90;;;;;;5010011;28;20163;-85
2021/01/28 12:54:50;;;;;;;34.08;5.20;;;12.60;99.90;;;;;;5026377;28;20033;-82
2021/01/28 12:57:15;;;;;;;31.48;5.80;;;12.70;99.90;;;;;;5010073;28;20088;-81
2021/01/28 12:59:41;;;;;;;28.98;5.53;;;12.80;99.90;;;;;;5028391;28;20057;-81
2021/01/28 13:02:07;;;;;;;30.95;6.80;;;12.90;99.90;;;;;;5009517;28;20033;-81